Time;durP1;ratioP1;P1;durP2;ratioP2;P2;SDS_P1;SDS_P2;PMS_P1;PMS_P2;Temp;Humidity;BMP_temperature;BMP_pressure;BME280_temperature;BME280_humidity;BME280_pressure;Samples;Min_cycle;Max_cycle;Signal;HPM_P1;HPM_P2
2022/11/22 00:02:24;;;;;;;26.47;14.17;;;-1.10;99.90;;;;;;5028112;28;20218;-68
2022/11/22 00:04:50;;;;;;;24.33;12.87;;;-1.10;99.90;;;;;;5026326;28;20217;-69
2022/11/22 00:07:15;;;;;;;26.67;14.53;;;-1.00;99.90;;;;;;5028783;28;20670;-69
2022/11/22 00:09:41;;;;;;;24.63;13.87;;;-1.00;99.90;;;;;;5023233;28;20745;-68
2022/11/22 00:12:06;;;;;;;25.10;13.33;;;-1.00;99.90;;;;;;5022293;28;20182;-69
2022/11/22 00:14:32;;;;;;;26.63;14.77;;;-1.00;99.90;;;;;;5025725;28;20706;-68
2022/11/22 00:16:58;;;;;;;24.27;14.63;;;-1.00;99.90;;;;;;5023164;28;20209;-68
2022/11/22 00:19:24;;;;;;;23.47;14.40;;;-1.00;99.90;;;;;;5023180;28;20224;-68
2022/11/22 00:21:49;;;;;;;25.23;15.33;;;-1.00;99.90;;;;;;5028275;28;20208;-69
2022/11/22 00:24:15;;;;;;;23.50;14.43;;;-1.00;99.90;;;;;;5024740;28;20196;-69
2022/11/22 00:26:40;;;;;;;22.37;13.73;;;-1.00;99.90;;;;;;5023150;28;20669;-68
2022/11/22 00:29:06;;;;;;;26.30;14.93;;;-0.90;99.90;;;;;;5027817;28;20208;-68
2022/11/22 00:31:32;;;;;;;23.93;14.83;;;-1.10;99.90;;;;;;5023688;28;20240;-69
2022/11/22 00:33:58;;;;;;;24.93;14.53;;;-1.20;99.90;;;;;;5028460;28;20710;-69
2022/11/22 00:36:23;;;;;;;23.07;13.33;;;-1.20;99.90;;;;;;5026334;28;20253;-69
2022/11/22 00:38:49;;;;;;;25.67;14.23;;;-1.10;99.90;;;;;;5020744;28;20907;-68
2022/11/22 00:41:15;;;;;;;22.67;13.90;;;-1.20;99.90;;;;;;5025247;28;20221;-69
2022/11/22 00:43:40;;;;;;;26.90;15.23;;;-1.20;99.90;;;;;;5024517;28;20296;-69
2022/11/22 00:46:06;;;;;;;26.50;14.77;;;-1.20;99.90;;;;;;5021300;28;20266;-70
2022/11/22 00:48:32;;;;;;;25.60;13.97;;;-1.20;99.90;;;;;;5025063;28;20709;-69
2022/11/22 00:50:57;;;;;;;26.63;14.23;;;-1.20;99.90;;;;;;5021913;28;20184;-70
2022/11/22 00:53:23;;;;;;;23.97;14.17;;;-1.10;99.90;;;;;;5021463;28;20220;-69
2022/11/22 00:55:50;;;;;;;23.57;14.73;;;-1.20;99.90;;;;;;5025182;28;20220;-69
2022/11/22 00:58:16;;;;;;;26.43;15.20;;;-1.20;99.90;;;;;;5021514;28;20223;-69
2022/11/22 01:00:41;;;;;;;26.67;15.67;;;-1.20;99.90;;;;;;5024217;28;20212;-69
2022/11/22 01:03:11;;;;;;;22.17;14.10;;;-1.30;99.90;;;;;;5024010;28;20176;-69
2022/11/22 01:05:37;;;;;;;28.17;15.03;;;-1.30;99.90;;;;;;5021892;28;20243;-69
2022/11/22 01:08:02;;;;;;;30.13;16.53;;;-1.30;99.90;;;;;;5027290;28;20240;-69
2022/11/22 01:10:28;;;;;;;25.80;14.73;;;-1.30;99.90;;;;;;5028151;28;20623;-69
2022/11/22 01:12:55;;;;;;;30.07;15.67;;;-1.40;99.90;;;;;;5022449;28;20573;-67
2022/11/22 01:15:21;;;;;;;29.70;16.53;;;-1.40;99.90;;;;;;5024621;28;20229;-69
2022/11/22 01:17:47;;;;;;;28.57;14.83;;;-1.40;99.90;;;;;;5022093;28;20211;-70
2022/11/22 01:20:13;;;;;;;26.37;15.10;;;-1.40;99.90;;;;;;5021270;28;20216;-69
2022/11/22 01:22:38;;;;;;;25.57;15.17;;;-1.40;99.90;;;;;;5026660;28;20219;-70
2022/11/22 01:25:04;;;;;;;28.83;15.60;;;-1.40;99.90;;;;;;5025097;28;20288;-69
2022/11/22 01:27:30;;;;;;;29.20;15.50;;;-1.40;99.90;;;;;;5024165;28;20212;-69
2022/11/22 01:29:55;;;;;;;27.80;15.80;;;-1.40;99.90;;;;;;5024589;28;20182;-69
2022/11/22 01:32:21;;;;;;;25.87;15.03;;;-1.40;99.90;;;;;;5026674;28;20204;-69
2022/11/22 01:34:47;;;;;;;30.23;15.93;;;-1.40;99.90;;;;;;5023194;28;20240;-67
2022/11/22 01:37:12;;;;;;;27.07;14.40;;;-1.30;99.90;;;;;;5024426;28;20209;-69
2022/11/22 01:39:38;;;;;;;27.37;13.80;;;-1.30;99.90;;;;;;5026773;28;20671;-69
2022/11/22 01:42:03;;;;;;;25.90;15.27;;;-1.40;99.90;;;;;;5029943;28;20207;-69
2022/11/22 01:44:31;;;;;;;28.50;16.07;;;-1.40;99.90;;;;;;5028546;28;20350;-69
2022/11/22 01:47:01;;;;;;;30.17;16.63;;;-1.30;99.90;;;;;;5023525;28;20210;-69
2022/11/22 01:49:34;;;;;;;26.20;15.47;;;-1.40;99.90;;;;;;5031017;28;20291;-70
2022/11/22 01:52:07;;;;;;;28.30;15.77;;;-1.30;99.90;;;;;;5023843;28;20709;-70
2022/11/22 01:54:37;;;;;;;31.30;16.63;;;-1.40;99.90;;;;;;5043276;23;20224;-67
2022/11/22 01:57:09;;;;;;;32.60;18.00;;;-1.40;99.90;;;;;;5026049;28;20186;-70
2022/11/22 01:59:37;;;;;;;27.90;16.87;;;-1.40;99.90;;;;;;5028702;28;20233;-69
2022/11/22 02:02:05;;;;;;;27.40;15.37;;;-1.40;99.90;;;;;;5030495;28;20691;-71
2022/11/22 02:04:33;;;;;;;31.50;17.70;;;-1.50;99.90;;;;;;5030310;28;20219;-69
2022/11/22 02:07:09;;;;;;;30.13;17.53;;;-1.50;99.90;;;;;;5023193;28;20691;-70
2022/11/22 02:09:36;;;;;;;27.67;15.50;;;-1.40;99.90;;;;;;5032126;28;20307;-70
2022/11/22 02:12:05;;;;;;;29.50;16.93;;;-1.40;99.90;;;;;;5024369;28;20185;-69
2022/11/22 02:14:32;;;;;;;31.23;17.63;;;-1.50;99.90;;;;;;5027485;28;20213;-69
2022/11/22 02:16:58;;;;;;;27.63;16.13;;;-1.40;99.90;;;;;;5027900;28;20224;-70
2022/11/22 02:19:32;;;;;;;30.73;17.90;;;-1.40;99.90;;;;;;5026417;28;20231;-69
2022/11/22 02:22:08;;;;;;;30.53;17.50;;;-1.40;99.90;;;;;;5028472;28;20210;-70
2022/11/22 02:24:44;;;;;;;28.07;15.23;;;-1.40;99.90;;;;;;5028236;28;20632;-68
2022/11/22 02:27:10;;;;;;;29.63;16.90;;;-1.40;99.90;;;;;;5024097;28;20213;-70
2022/11/22 02:29:36;;;;;;;28.97;16.30;;;-1.40;99.90;;;;;;5028319;28;20208;-69
2022/11/22 02:32:02;;;;;;;30.50;16.80;;;-1.40;99.90;;;;;;5029601;28;20212;-69
2022/11/22 02:34:27;;;;;;;30.80;16.60;;;-1.40;99.90;;;;;;5025277;28;20216;-71
2022/11/22 02:36:53;;;;;;;29.20;15.67;;;-1.40;99.90;;;;;;5027916;28;20227;-69
2022/11/22 02:39:29;;;;;;;27.80;15.70;;;-1.40;99.90;;;;;;5026222;28;20238;-70
2022/11/22 02:41:56;;;;;;;30.53;16.57;;;-1.40;99.90;;;;;;5024831;28;20180;-69
2022/11/22 02:44:22;;;;;;;32.93;16.87;;;-1.40;99.90;;;;;;5028537;28;20291;-70
2022/11/22 02:46:50;;;;;;;29.87;16.57;;;-1.40;99.90;;;;;;5023144;28;20293;-68
2022/11/22 02:49:18;;;;;;;33.33;16.73;;;-1.40;99.90;;;;;;5029470;28;20219;-69
2022/11/22 02:51:44;;;;;;;33.90;17.53;;;-1.40;99.90;;;;;;5024966;28;20212;-69
2022/11/22 02:54:09;;;;;;;31.83;16.77;;;-1.40;99.90;;;;;;5030169;28;20224;-69
2022/11/22 02:56:35;;;;;;;28.33;16.10;;;-1.40;99.90;;;;;;5030843;28;20188;-70
2022/11/22 02:59:00;;;;;;;29.13;17.07;;;-1.40;99.90;;;;;;5023400;28;20225;-68
2022/11/22 03:01:26;;;;;;;33.43;17.20;;;-1.30;99.90;;;;;;5024395;28;20223;-69
2022/11/22 03:03:52;;;;;;;33.33;18.20;;;-1.30;99.90;;;;;;5027048;28;20215;-69
2022/11/22 03:06:17;;;;;;;33.93;18.53;;;-1.30;99.90;;;;;;5023394;28;20193;-70
2022/11/22 03:08:43;;;;;;;29.60;16.83;;;-1.30;99.90;;;;;;5024979;28;20234;-70
2022/11/22 03:11:08;;;;;;;29.70;17.10;;;-1.30;99.90;;;;;;5026405;28;20213;-70
2022/11/22 03:13:34;;;;;;;30.23;16.37;;;-1.30;99.90;;;;;;5024204;28;20212;-68
2022/11/22 03:16:00;;;;;;;29.43;16.43;;;-1.30;99.90;;;;;;5023187;28;20798;-70
2022/11/22 03:18:25;;;;;;;32.73;17.23;;;-1.30;99.90;;;;;;5027520;28;20208;-69
2022/11/22 03:20:51;;;;;;;33.03;17.30;;;-1.20;99.90;;;;;;5021582;28;20239;-69
2022/11/22 03:23:17;;;;;;;40.13;18.80;;;-1.30;99.90;;;;;;5022237;28;20746;-69
2022/11/22 03:25:42;;;;;;;32.50;17.77;;;-1.30;99.90;;;;;;5022300;28;20270;-69
2022/11/22 03:28:08;;;;;;;30.37;16.33;;;-1.30;99.90;;;;;;5019562;28;20227;-69
2022/11/22 03:30:37;;;;;;;34.17;17.93;;;-1.30;99.90;;;;;;5022440;28;20216;-68
2022/11/22 03:33:03;;;;;;;38.77;19.23;;;-1.30;99.90;;;;;;5020137;28;20214;-69
2022/11/22 03:35:28;;;;;;;32.20;17.93;;;-1.30;99.90;;;;;;5020520;28;20242;-68
2022/11/22 03:37:54;;;;;;;34.43;17.90;;;-1.30;99.90;;;;;;5023053;28;20682;-67
2022/11/22 03:40:20;;;;;;;30.07;17.13;;;-1.30;99.90;;;;;;5026901;28;20335;-68
2022/11/22 03:42:45;;;;;;;33.33;18.03;;;-1.30;99.90;;;;;;5019479;28;20219;-69
2022/11/22 03:45:11;;;;;;;34.77;18.07;;;-1.40;99.90;;;;;;5019878;28;20246;-68
2022/11/22 03:47:36;;;;;;;33.13;18.00;;;-1.30;99.90;;;;;;5021750;28;20189;-68
2022/11/22 03:50:03;;;;;;;31.60;17.53;;;-1.30;99.90;;;;;;5018627;28;20221;-68
2022/11/22 03:52:28;;;;;;;32.67;18.30;;;-1.40;99.90;;;;;;5022505;28;20254;-69
2022/11/22 03:54:54;;;;;;;33.20;17.90;;;-1.40;99.90;;;;;;5020037;28;20791;-67
2022/11/22 03:57:20;;;;;;;33.20;17.70;;;-1.40;99.90;;;;;;5020344;28;20185;-69
2022/11/22 03:59:45;;;;;;;32.00;18.27;;;-1.40;99.90;;;;;;5024556;28;20594;-68
2022/11/22 04:02:11;;;;;;;34.10;18.47;;;-1.40;99.90;;;;;;5019144;28;20235;-68
2022/11/22 04:04:36;;;;;;;37.67;19.13;;;-1.40;99.90;;;;;;5023246;28;20930;-68
2022/11/22 04:07:02;;;;;;;32.63;17.30;;;-1.40;99.90;;;;;;5019622;28;20219;-68
2022/11/22 04:09:28;;;;;;;34.13;18.13;;;-1.40;99.90;;;;;;5017777;28;20378;-68
2022/11/22 04:11:53;;;;;;;30.43;17.97;;;-1.40;99.90;;;;;;5019628;28;20173;-67
2022/11/22 04:17:03;;;;;;;36.57;18.47;;;-1.40;99.90;;;;;;5018736;28;20220;-68
2022/11/22 04:19:28;;;;;;;37.17;19.10;;;-1.40;99.90;;;;;;5024843;28;20707;-68
2022/11/22 04:21:54;;;;;;;28.57;16.67;;;-1.40;99.90;;;;;;5017434;28;20252;-67
2022/11/22 04:27:04;;;;;;;36.90;20.00;;;-1.40;99.90;;;;;;5019569;28;20732;-68
2022/11/22 04:29:30;;;;;;;38.53;20.00;;;-1.30;99.90;;;;;;5019439;28;20307;-68
2022/11/22 04:34:39;;;;;;;34.50;18.47;;;-1.40;99.90;;;;;;5021050;28;20238;-68
2022/11/22 04:37:05;;;;;;;39.23;19.83;;;-1.30;99.90;;;;;;5018355;28;20213;-69
2022/11/22 04:39:31;;;;;;;40.63;20.70;;;-1.40;99.90;;;;;;5024693;28;20216;-68
2022/11/22 04:44:42;;;;;;;38.30;18.67;;;-1.30;99.90;;;;;;5022471;28;20281;-68
2022/11/22 04:50:01;;;;;;;41.30;20.30;;;-1.30;99.90;;;;;;5018238;28;20238;-68
2022/11/22 04:55:11;;;;;;;41.60;21.27;;;-1.40;99.90;;;;;;5021769;28;20223;-68
2022/11/22 04:57:36;;;;;;;40.30;20.80;;;-1.30;99.90;;;;;;5019276;28;20593;-68
2022/11/22 05:00:03;;;;;;;42.47;20.83;;;-1.30;99.90;;;;;;5018659;28;20188;-68
2022/11/22 05:02:28;;;;;;;42.63;20.47;;;-1.20;99.90;;;;;;5019606;28;20231;-68
2022/11/22 05:04:54;;;;;;;44.23;21.47;;;-1.20;99.90;;;;;;5020251;28;20706;-68
2022/11/22 05:07:19;;;;;;;40.20;20.73;;;-1.20;99.90;;;;;;5021755;28;20212;-70
2022/11/22 05:09:45;;;;;;;42.63;21.50;;;-1.30;99.90;;;;;;5018486;28;20222;-69
2022/11/22 05:12:10;;;;;;;43.83;21.27;;;-1.30;99.90;;;;;;5018809;28;20216;-69
2022/11/22 05:14:36;;;;;;;46.87;21.53;;;-1.30;99.90;;;;;;5025443;28;20205;-68
2022/11/22 05:17:01;;;;;;;52.30;22.43;;;-1.20;99.90;;;;;;5021948;28;20818;-68
2022/11/22 05:19:27;;;;;;;44.10;22.10;;;-1.20;99.90;;;;;;5024884;28;20218;-69
2022/11/22 05:21:52;;;;;;;47.67;22.13;;;-1.20;99.90;;;;;;5022212;28;20220;-66
2022/11/22 05:24:18;;;;;;;47.63;22.13;;;-1.20;99.90;;;;;;5026501;28;20205;-68
2022/11/22 05:26:44;;;;;;;50.33;22.37;;;-1.30;99.90;;;;;;5024808;28;20185;-69
2022/11/22 05:29:10;;;;;;;48.47;21.97;;;-1.30;99.90;;;;;;5021585;28;20218;-66
2022/11/22 05:31:37;;;;;;;47.53;23.00;;;-1.30;99.90;;;;;;5027779;28;20307;-68
2022/11/22 05:34:05;;;;;;;49.53;22.67;;;-1.20;99.90;;;;;;5025171;28;20216;-68
2022/11/22 05:36:32;;;;;;;48.73;21.90;;;-1.20;99.90;;;;;;5026793;28;20217;-68
2022/11/22 05:38:58;;;;;;;51.97;22.50;;;-1.10;99.90;;;;;;5029692;28;20200;-69
2022/11/22 05:41:24;;;;;;;49.23;22.83;;;-1.20;99.90;;;;;;5027991;28;20215;-69
2022/11/22 05:43:49;;;;;;;46.87;22.20;;;-1.10;99.90;;;;;;5025810;28;20208;-68
2022/11/22 05:46:18;;;;;;;54.90;25.03;;;-1.20;99.90;;;;;;5029503;28;20201;-69
2022/11/22 05:48:45;;;;;;;46.23;21.57;;;-1.20;99.90;;;;;;5024932;28;20331;-69
2022/11/22 05:51:17;;;;;;;45.73;21.33;;;-1.20;99.90;;;;;;5027318;28;20250;-68
2022/11/22 05:53:43;;;;;;;47.43;22.77;;;-1.20;99.90;;;;;;5025575;28;20188;-68
2022/11/22 05:56:17;;;;;;;46.77;22.97;;;-1.20;99.90;;;;;;5024883;28;20217;-69
2022/11/22 05:58:44;;;;;;;48.33;21.60;;;-1.10;99.90;;;;;;5030770;28;20252;-69
2022/11/22 06:01:18;;;;;;;51.13;22.53;;;-1.10;99.90;;;;;;5026178;28;20254;-69
2022/11/22 06:03:44;;;;;;;48.70;21.70;;;-1.10;99.90;;;;;;5029620;28;20204;-69
2022/11/22 06:06:10;;;;;;;50.37;22.47;;;-1.10;99.90;;;;;;5029052;28;20235;-69
2022/11/22 06:08:39;;;;;;;53.00;23.00;;;-1.00;99.90;;;;;;5026372;28;20181;-68
2022/11/22 06:11:13;;;;;;;48.23;23.13;;;-1.00;99.90;;;;;;5030182;28;20221;-69
2022/11/22 06:13:40;;;;;;;48.77;22.07;;;-1.00;99.90;;;;;;5026455;28;20705;-69
2022/11/22 06:16:06;;;;;;;47.40;20.30;;;-1.00;99.90;;;;;;5023091;28;20209;-69
2022/11/22 06:18:33;;;;;;;46.67;21.90;;;-1.00;99.90;;;;;;5027964;28;20220;-69
2022/11/22 06:21:00;;;;;;;44.40;22.20;;;-1.00;99.90;;;;;;5025021;28;20559;-68
2022/11/22 06:23:26;;;;;;;48.87;21.37;;;-0.90;99.90;;;;;;5025420;28;20222;-68
2022/11/22 06:26:06;;;;;;;48.27;22.40;;;-0.90;99.90;;;;;;5032463;28;20619;-68
2022/11/22 06:28:33;;;;;;;45.93;20.17;;;-0.90;99.90;;;;;;5023482;28;20215;-68
2022/11/22 06:31:01;;;;;;;41.67;19.83;;;-0.90;99.90;;;;;;5025412;28;20295;-69
2022/11/22 06:33:26;;;;;;;46.33;20.90;;;-0.90;99.90;;;;;;5031020;28;20203;-69
2022/11/22 06:35:52;;;;;;;48.47;21.90;;;-0.90;99.90;;;;;;5023776;28;20403;-68
2022/11/22 06:38:17;;;;;;;44.60;20.03;;;-0.90;99.90;;;;;;5027019;28;20653;-68
2022/11/22 06:40:43;;;;;;;42.90;20.27;;;-0.90;99.90;;;;;;5031095;28;20219;-69
2022/11/22 06:43:08;;;;;;;46.83;21.70;;;-0.90;99.90;;;;;;5025862;28;20209;-67
2022/11/22 06:45:34;;;;;;;42.53;21.20;;;-0.90;99.90;;;;;;5030952;28;20212;-68
2022/11/22 06:48:00;;;;;;;51.30;21.47;;;-0.90;99.90;;;;;;5026021;28;20231;-67
2022/11/22 06:50:25;;;;;;;47.40;22.23;;;-0.90;99.90;;;;;;5024616;28;20683;-68
2022/11/22 06:52:51;;;;;;;41.13;20.50;;;-0.80;99.90;;;;;;5028488;28;20215;-69
2022/11/22 06:55:17;;;;;;;42.30;20.07;;;-0.80;99.90;;;;;;5023386;28;20604;-68
2022/11/22 06:57:43;;;;;;;44.13;21.53;;;-0.80;99.90;;;;;;5024762;28;20223;-69
2022/11/22 07:00:09;;;;;;;38.67;19.97;;;-0.90;99.90;;;;;;5027205;28;20177;-69
2022/11/22 07:02:35;;;;;;;41.50;20.70;;;-0.80;99.90;;;;;;5026808;28;20169;-70
2022/11/22 07:05:00;;;;;;;48.57;22.93;;;-0.80;99.90;;;;;;5026862;28;20211;-67
2022/11/22 07:07:26;;;;;;;45.73;22.37;;;-0.80;99.90;;;;;;5030487;28;20212;-68
2022/11/22 07:09:51;;;;;;;43.43;21.50;;;-0.80;99.90;;;;;;5021997;28;20217;-68
2022/11/22 07:12:17;;;;;;;43.30;20.67;;;-0.70;99.90;;;;;;5026505;28;20188;-68
2022/11/22 07:14:43;;;;;;;46.57;21.60;;;-0.80;99.90;;;;;;5026662;28;20196;-67
2022/11/22 07:17:08;;;;;;;41.37;20.37;;;-0.80;99.90;;;;;;5023192;28;20312;-69
2022/11/22 07:19:34;;;;;;;38.83;18.63;;;-0.80;99.90;;;;;;5029504;28;20216;-66
2022/11/22 07:21:59;;;;;;;44.30;21.33;;;-0.70;99.90;;;;;;5024169;28;20263;-67
2022/11/22 07:24:25;;;;;;;40.00;19.80;;;-0.70;99.90;;;;;;5024206;28;20690;-68
2022/11/22 07:26:51;;;;;;;43.53;20.30;;;-0.60;99.90;;;;;;5028055;28;20184;-68
2022/11/22 07:29:16;;;;;;;44.70;20.60;;;-0.60;99.90;;;;;;5025363;28;20354;-66
2022/11/22 07:31:44;;;;;;;43.17;20.30;;;-0.60;99.90;;;;;;5023891;28;20300;-68
2022/11/22 07:34:09;;;;;;;44.93;20.87;;;-0.60;99.90;;;;;;5022814;28;20213;-69
2022/11/22 07:36:35;;;;;;;44.23;20.07;;;-0.60;99.90;;;;;;5022393;28;20262;-70
2022/11/22 07:39:02;;;;;;;42.33;20.90;;;-0.50;99.90;;;;;;5023053;28;20212;-68
2022/11/22 07:41:28;;;;;;;41.70;18.83;;;-0.60;99.90;;;;;;5025620;28;20610;-69
2022/11/22 07:43:53;;;;;;;41.47;19.20;;;-0.50;99.90;;;;;;5020487;28;20295;-67
2022/11/22 07:46:30;;;;;;;43.63;19.50;;;-0.60;99.90;;;;;;5029087;28;20262;-68
2022/11/22 07:48:56;;;;;;;44.70;21.23;;;-0.60;99.90;;;;;;5023917;28;20210;-68
2022/11/22 07:51:22;;;;;;;38.53;19.93;;;-0.50;99.90;;;;;;5019850;28;20183;-69
2022/11/22 07:53:48;;;;;;;49.03;21.03;;;-0.50;99.90;;;;;;5027820;28;20192;-68
2022/11/22 07:56:14;;;;;;;44.47;22.30;;;-0.50;99.90;;;;;;5024633;28;20235;-68
2022/11/22 07:58:40;;;;;;;42.23;21.00;;;-0.40;99.90;;;;;;5041952;23;20220;-69
2022/11/22 08:01:11;;;;;;;48.03;21.93;;;-0.40;99.90;;;;;;5025097;28;20210;-69
2022/11/22 08:03:37;;;;;;;46.20;22.17;;;-0.40;99.90;;;;;;5027024;28;20208;-69
2022/11/22 08:06:04;;;;;;;44.17;21.40;;;-0.40;99.90;;;;;;5028598;28;20168;-69
2022/11/22 08:08:30;;;;;;;46.20;20.77;;;-0.40;99.90;;;;;;5026964;28;20714;-69
2022/11/22 08:10:56;;;;;;;45.10;22.10;;;-0.30;99.90;;;;;;5020280;28;20224;-69
2022/11/22 08:13:22;;;;;;;38.77;20.27;;;-0.30;99.90;;;;;;5029361;28;20309;-68
2022/11/22 08:15:48;;;;;;;42.13;19.50;;;-0.30;99.90;;;;;;5026481;28;20235;-69
2022/11/22 08:18:15;;;;;;;45.10;21.50;;;-0.30;99.90;;;;;;5022643;28;20208;-69
2022/11/22 08:20:40;;;;;;;42.50;20.00;;;-0.30;99.90;;;;;;5028244;28;20179;-69
2022/11/22 08:23:06;;;;;;;43.17;21.93;;;-0.30;99.90;;;;;;5023410;28;20216;-69
2022/11/22 08:25:32;;;;;;;44.83;20.60;;;-0.40;99.90;;;;;;5023110;28;20236;-69
2022/11/22 08:27:57;;;;;;;44.50;21.67;;;-0.30;99.90;;;;;;5025595;28;20663;-69
2022/11/22 08:30:23;;;;;;;44.20;22.13;;;-0.30;99.90;;;;;;5027016;28;20190;-69
2022/11/22 08:32:50;;;;;;;43.00;22.20;;;-0.30;99.90;;;;;;5024973;28;20615;-69
2022/11/22 08:35:16;;;;;;;46.67;20.80;;;-0.30;99.90;;;;;;5026409;28;20209;-69
2022/11/22 08:37:41;;;;;;;41.73;20.10;;;-0.20;99.90;;;;;;5021713;28;20231;-69
2022/11/22 08:40:08;;;;;;;49.10;21.50;;;-0.20;99.90;;;;;;5026673;28;20242;-69
2022/11/22 08:42:33;;;;;;;54.03;23.10;;;-0.20;99.90;;;;;;5025665;28;20218;-66
2022/11/22 08:44:59;;;;;;;46.90;22.33;;;-0.30;99.90;;;;;;5020732;28;20545;-69
2022/11/22 08:47:24;;;;;;;53.63;22.83;;;-0.20;99.90;;;;;;5028337;28;20221;-70
2022/11/22 08:49:50;;;;;;;45.80;22.93;;;-0.20;99.90;;;;;;5021536;28;20293;-67
2022/11/22 08:52:16;;;;;;;53.57;23.33;;;-0.20;99.90;;;;;;5025138;28;20299;-68
2022/11/22 08:54:41;;;;;;;52.13;23.20;;;-0.20;99.90;;;;;;5026928;28;20702;-68
2022/11/22 08:57:07;;;;;;;49.20;22.90;;;-0.20;99.90;;;;;;5022762;28;20189;-68
2022/11/22 08:59:32;;;;;;;49.87;22.63;;;-0.10;99.90;;;;;;5028476;28;20256;-68
2022/11/22 09:01:58;;;;;;;52.90;23.73;;;-0.10;99.90;;;;;;5024833;28;20213;-67
2022/11/22 09:04:24;;;;;;;55.53;23.73;;;-0.20;99.90;;;;;;5025432;28;20622;-68
2022/11/22 09:06:49;;;;;;;53.87;24.77;;;-0.10;99.90;;;;;;5024725;28;20212;-68
2022/11/22 09:09:15;;;;;;;50.97;24.07;;;0.00;99.90;;;;;;5023819;28;20200;-66
2022/11/22 09:11:41;;;;;;;49.00;22.43;;;0.00;99.90;;;;;;5026672;28;20196;-68
2022/11/22 09:14:06;;;;;;;52.77;24.83;;;0.00;99.90;;;;;;5026309;28;20217;-68
2022/11/22 09:16:32;;;;;;;52.40;23.70;;;0.10;99.90;;;;;;5025034;28;20699;-68
2022/11/22 09:18:58;;;;;;;54.17;24.50;;;0.20;99.90;;;;;;5019608;28;20308;-68
2022/11/22 09:21:23;;;;;;;64.43;30.57;;;0.20;99.90;;;;;;5027225;28;20195;-68
2022/11/22 09:23:52;;;;;;;50.53;22.20;;;0.30;99.90;;;;;;5022679;28;20192;-68
2022/11/22 09:26:21;;;;;;;49.83;24.07;;;0.30;99.90;;;;;;5025025;28;20227;-68
2022/11/22 09:28:47;;;;;;;48.57;22.17;;;0.30;99.90;;;;;;5025422;28;20219;-68
2022/11/22 09:31:18;;;;;;;50.23;22.63;;;0.20;99.90;;;;;;5027756;28;20225;-68
2022/11/22 09:33:45;;;;;;;46.47;20.87;;;0.20;99.90;;;;;;5026343;28;20799;-68
2022/11/22 09:36:16;;;;;;;47.70;22.67;;;0.20;99.90;;;;;;5025594;28;20186;-68
2022/11/22 09:38:41;;;;;;;48.33;22.37;;;0.10;99.90;;;;;;5024111;28;20218;-69
2022/11/22 09:41:16;;;;;;;54.50;23.07;;;0.10;99.90;;;;;;5025857;28;20213;-68
2022/11/22 09:44:05;;;;;;;50.80;23.27;;;0.20;99.90;;;;;;5024903;28;20222;-68
2022/11/22 09:46:56;;;;;;;48.90;23.73;;;0.30;99.90;;;;;;5023047;28;20213;-69
2022/11/22 09:49:27;;;;;;;50.83;23.17;;;0.20;99.90;;;;;;5023356;28;20311;-69
2022/11/22 09:52:16;;;;;;;46.70;22.37;;;0.30;99.90;;;;;;5018335;28;20211;-68
2022/11/22 09:54:58;;;;;;;46.63;22.27;;;0.30;99.90;;;;;;5027881;28;20231;-68
2022/11/22 09:57:32;;;;;;;53.57;24.53;;;0.40;99.90;;;;;;5023444;28;20210;-68
2022/11/22 10:00:04;;;;;;;54.67;23.87;;;0.30;99.90;;;;;;5026480;28;20184;-68
2022/11/22 10:02:39;;;;;;;50.50;23.83;;;0.40;99.90;;;;;;5030398;28;20305;-68
2022/11/22 10:05:16;;;;;;;52.60;23.10;;;0.40;99.90;;;;;;5028213;28;20217;-68
2022/11/22 10:07:51;;;;;;;48.23;22.57;;;0.40;99.90;;;;;;5027302;28;20237;-68
2022/11/22 10:10:33;;;;;;;50.57;22.73;;;0.40;99.90;;;;;;5029691;28;20224;-69
2022/11/22 10:13:13;;;;;;;55.07;25.20;;;0.40;99.90;;;;;;5023030;28;20691;-67
2022/11/22 10:15:56;;;;;;;48.80;22.73;;;0.50;99.90;;;;;;5031472;28;20786;-68
2022/11/22 10:18:39;;;;;;;51.67;22.70;;;0.50;99.90;;;;;;5030743;28;20217;-67
2022/11/22 10:21:11;;;;;;;53.03;22.63;;;0.40;99.90;;;;;;5031618;28;20176;-67
2022/11/22 10:23:40;;;;;;;46.63;22.33;;;0.50;99.90;;;;;;5025479;28;20204;-68
2022/11/22 10:26:21;;;;;;;51.50;23.83;;;0.50;99.90;;;;;;5028045;28;20222;-66
2022/11/22 10:28:50;;;;;;;52.37;23.07;;;0.60;99.90;;;;;;5029027;28;20240;-66
2022/11/22 10:31:21;;;;;;;53.20;24.50;;;0.60;99.90;;;;;;5029037;28;20702;-66
2022/11/22 10:34:10;;;;;;;52.93;24.37;;;0.70;99.90;;;;;;5029163;28;20216;-67
2022/11/22 10:36:45;;;;;;;50.80;22.97;;;0.70;99.90;;;;;;5014708;28;20219;-66
2022/11/22 10:39:11;;;;;;;52.43;24.27;;;0.60;99.90;;;;;;5017596;28;20209;-65
2022/11/22 10:41:45;;;;;;;56.00;25.17;;;0.60;99.90;;;;;;5028010;28;20186;-67
2022/11/22 10:44:26;;;;;;;55.93;24.93;;;0.70;99.90;;;;;;5030550;28;20311;-67
2022/11/22 10:47:13;;;;;;;51.43;22.87;;;0.80;99.90;;;;;;5030502;28;20219;-66
2022/11/22 10:50:02;;;;;;;48.80;22.97;;;0.70;99.90;;;;;;5025867;28;20267;-67
2022/11/22 10:53:14;;;;;;;47.20;22.10;;;0.80;99.90;;;;;;5027876;28;20220;-67
2022/11/22 10:55:58;;;;;;;52.63;23.53;;;0.80;99.90;;;;;;4978720;28;20208;-68
2022/11/22 10:58:48;;;;;;;55.10;23.13;;;0.90;99.90;;;;;;5038441;28;20321;-68
2022/11/22 11:01:28;;;;;;;52.17;23.97;;;1.00;99.90;;;;;;5028111;28;20214;-69
2022/11/22 11:03:58;;;;;;;46.90;22.80;;;0.90;99.90;;;;;;5027037;28;20207;-67
2022/11/22 11:06:50;;;;;;;50.33;23.40;;;1.00;99.90;;;;;;5031341;28;20200;-68
2022/11/22 11:09:20;;;;;;;51.93;23.90;;;1.00;99.90;;;;;;5024912;28;20679;-66
2022/11/22 11:11:48;;;;;;;45.13;21.90;;;1.00;99.90;;;;;;5029568;28;20232;-69
2022/11/22 11:14:40;;;;;;;62.17;25.97;;;1.00;99.90;;;;;;5027403;28;20263;-67
2022/11/22 11:17:06;;;;;;;49.07;23.27;;;1.00;99.90;;;;;;5028018;28;20211;-68
2022/11/22 11:19:39;;;;;;;52.90;25.47;;;1.10;99.90;;;;;;5025914;28;20310;-68
2022/11/22 11:22:25;;;;;;;52.40;25.20;;;1.10;99.90;;;;;;5030104;28;20311;-67
2022/11/22 11:24:51;;;;;;;56.40;26.27;;;1.20;99.90;;;;;;5022743;28;20583;-69
2022/11/22 11:27:19;;;;;;;51.83;23.57;;;1.20;99.90;;;;;;5030242;28;20189;-69
2022/11/22 11:29:49;;;;;;;53.73;25.50;;;1.20;99.90;;;;;;5026018;28;20214;-68
2022/11/22 11:32:18;;;;;;;52.37;23.80;;;1.30;99.90;;;;;;5026651;28;20208;-68
2022/11/22 11:35:06;;;;;;;52.53;22.80;;;1.20;99.90;;;;;;5028616;28;20217;-68
2022/11/22 11:37:35;;;;;;;52.00;22.73;;;1.30;99.90;;;;;;5027760;28;20219;-68
2022/11/22 11:40:02;;;;;;;51.47;22.67;;;1.30;99.90;;;;;;5024537;28;20219;-68
2022/11/22 11:42:33;;;;;;;55.23;23.57;;;1.30;99.90;;;;;;5030608;28;20267;-68
2022/11/22 11:45:23;;;;;;;44.77;21.47;;;1.30;99.90;;;;;;5024888;28;20208;-68
2022/11/22 11:47:49;;;;;;;50.87;23.83;;;1.40;99.90;;;;;;5027362;28;20259;-68
2022/11/22 11:50:20;;;;;;;47.13;22.87;;;1.40;99.90;;;;;;5025294;28;20689;-69
2022/11/22 11:53:02;;;;;;;52.07;23.80;;;1.40;99.90;;;;;;5029849;28;20261;-67
2022/11/22 11:55:30;;;;;;;49.00;23.27;;;1.40;99.90;;;;;;5024747;28;20227;-69
2022/11/22 11:57:56;;;;;;;54.33;23.23;;;1.50;99.90;;;;;;5021326;28;20346;-67
2022/11/22 12:00:33;;;;;;;49.33;22.67;;;1.50;99.90;;;;;;5029291;28;20217;-67
2022/11/22 12:03:04;;;;;;;46.83;21.60;;;1.60;99.90;;;;;;5028799;28;20224;-67
2022/11/22 12:05:32;;;;;;;46.57;21.30;;;1.60;99.90;;;;;;5023416;28;20206;-67
2022/11/22 12:07:59;;;;;;;50.33;23.90;;;1.60;99.90;;;;;;5026181;28;20216;-67
2022/11/22 12:10:25;;;;;;;44.57;22.20;;;1.60;99.90;;;;;;5028460;28;20291;-67
2022/11/22 12:12:54;;;;;;;45.30;22.70;;;1.60;99.90;;;;;;5022528;28;20782;-67
2022/11/22 12:15:27;;;;;;;39.43;19.43;;;1.60;99.90;;;;;;5026296;28;20186;-67
2022/11/22 12:18:05;;;;;;;46.30;22.60;;;1.60;99.90;;;;;;5025444;28;20208;-66
2022/11/22 12:20:52;;;;;;;47.63;22.37;;;1.60;99.90;;;;;;5022258;28;20200;-67
2022/11/22 12:23:41;;;;;;;49.23;23.50;;;1.60;99.90;;;;;;5028922;28;20248;-67
2022/11/22 12:26:07;;;;;;;47.80;23.57;;;1.60;99.90;;;;;;5024192;28;20724;-67
2022/11/22 12:28:33;;;;;;;47.43;21.87;;;1.70;99.90;;;;;;5026214;28;20213;-67
2022/11/22 12:31:11;;;;;;;47.77;21.77;;;1.70;99.90;;;;;;5023895;28;20219;-67
2022/11/22 12:33:48;;;;;;;41.90;21.00;;;1.70;99.90;;;;;;5024382;28;20219;-67
2022/11/22 12:36:21;;;;;;;50.77;23.60;;;1.70;99.90;;;;;;5027616;28;20735;-67
2022/11/22 12:38:49;;;;;;;49.40;23.27;;;1.80;99.90;;;;;;5024620;28;20210;-67
2022/11/22 12:41:17;;;;;;;47.27;22.17;;;1.80;99.90;;;;;;5022425;28;20585;-67
2022/11/22 12:43:57;;;;;;;48.37;23.30;;;1.80;99.90;;;;;;5027739;28;20217;-68
2022/11/22 12:46:42;;;;;;;47.37;22.70;;;1.80;99.90;;;;;;5023690;28;20213;-67
2022/11/22 12:49:49;;;;;;;46.03;22.90;;;1.80;99.90;;;;;;5023039;28;20222;-67
2022/11/22 12:52:30;;;;;;;41.83;22.23;;;1.80;99.90;;;;;;4988291;28;20211;-66
2022/11/22 12:55:04;;;;;;;42.67;21.50;;;1.90;99.90;;;;;;5017100;28;20632;-67
2022/11/22 12:57:53;;;;;;;48.87;22.20;;;1.90;99.90;;;;;;5028606;28;20582;-67